Jacobs, Texas
Current Conditions -  °F | °C
As of 12:15 AM on Monday 26 Jan 2015 (Local Time) from KRFI Reporting Station
Clear Clear  
Wind Chill: 39°   Ceiling: Unl
Heat Index: 42°   Visibility: 10mi
Dew Point: 30°   Wind: 5mph
Humidity: 63%   Direction: 270°W
Pressure: 30.16"   Gusts: NA
Location:  32.2818°N, 94.951°W
Report Text: KRFI 260615Z AUTO 27004KT 10SM CLR 05/M01 A3016 RMK AO2 T00541012
Loading
Personal Weather Stations






























Interactive Weather Map New forecast layout! Learn more

10-Day Weather Forecast

Advertisements
Track Severe Weather on mobile